KBWD/BWD METAR and TAF weather

Enter ICAO airport designator
Station Type Date Time Source
KBWD METAR 2020/02/16 19:55 UTC NOAA

KBWD 161955Z AUTO 23011G16KT 10SM CLR 24/05 A2991 RMK AO1


Station Type Date Time Source
KBWD Decoded METAR 2020/02/16 19:55 UTC NOAA

Brownwood, Brownwood Regional Airport, TX, United States (KBWD) 31-48N 098-57W
Feb 16, 2020 - 02:55 PM EST / 2020.02.16 1955 UTC
Wind: from the SW (230 degrees) at 13 MPH (11 KT) gusting to 18 MPH (16 KT):0
Visibility: 10 mile(s):0
Sky conditions: clear
Temperature: 75 F (24 C)
Dew Point: 41 F (5 C)
Relative Humidity: 29%
Pressure (altimeter): 29.91 in. Hg (1012 hPa)
ob: KBWD 161955Z AUTO 23011G16KT 10SM CLR 24/05 A2991 RMK AO1
cycle: 20

Station Type Date Time Source
KBWD TAF UTC NOAA

Error!

Example: see airport list